Search for airport 
image banner adimage banner adimage banner ad
image banner ad

CL46 - Quail Lake Sky Park

Located in Gorman/Lancaster, United States

ICAO - CL46, IATA -

Data provided by Airmate  

General information

Coordinates: N34°46'4" W118°43'54"
Elevation is 3370 feet MSL.
Magnetic variation is 14° East
View others Airports in California

Operational data

Special qualification required
Current time UTC:
Current local time:
Weather at : KWJF - General Wm J Fox Airfield ( 47 km )
METAR: KWJF 231356Z 24005KT 10SM BKN100 21/08 A2998 RMK AO2 SLP133 T02060078
TAF: KWJF 231144Z 2312/2412 25009KT P6SM SKC FM232200 23015G20KT P6SM SKC FM240400 23010KT P6SM SKC
View NOTAMs / SUP AIP / TFR affecting this airport [VIEW]
Communications frequencies: [VIEW]

Runways:

RWY identifierQFULength (ft)Width (ft)SurfaceLDA (ft)
08310040ASPH
26310040ASPH

Airport contact information

Address: Gorman/Lancaster United States

Satellite view of CL46